createdAt,value
2023-05-06T00:01:57.875Z,99292.72
2023-05-06T00:04:24.583Z,99291.25
2023-05-06T00:06:51.412Z,99285.03
2023-05-06T00:09:18.061Z,99276.19
2023-05-06T00:11:45.832Z,99276.00
2023-05-06T00:14:12.519Z,99281.66
2023-05-06T00:16:39.196Z,99281.28
2023-05-06T00:19:05.829Z,99281.06
2023-05-06T00:21:32.461Z,99281.34
2023-05-06T00:23:59.086Z,99282.22
2023-05-06T00:26:25.669Z,99271.63
2023-05-06T00:28:53.257Z,99273.00
2023-05-06T00:31:19.923Z,99270.19
2023-05-06T00:33:46.655Z,99268.91
2023-05-06T00:36:13.267Z,99267.28
2023-05-06T00:38:40.090Z,99267.28
2023-05-06T00:41:06.976Z,99260.47
2023-05-06T00:43:33.566Z,99258.63
2023-05-06T00:46:00.728Z,99242.03
2023-05-06T00:48:27.594Z,99249.59
2023-05-06T00:50:54.307Z,99247.25
2023-05-06T00:53:23.711Z,99243.88
2023-05-06T00:55:51.282Z,99244.16
2023-05-06T00:58:20.149Z,99235.31
2023-05-06T01:00:46.840Z,99237.25
2023-05-06T01:03:13.688Z,99226.09
2023-05-06T01:05:51.086Z,99233.19
2023-05-06T01:08:27.802Z,99238.72
2023-05-06T01:11:00.287Z,99228.53
2023-05-06T01:13:56.390Z,99225.78
2023-05-06T01:16:25.410Z,99220.94
2023-05-06T01:18:54.774Z,99216.44
2023-05-06T01:21:22.742Z,99215.06
2023-05-06T01:23:58.726Z,99214.28
2023-05-06T01:26:26.327Z,99221.63
2023-05-06T01:28:53.888Z,99216.59
2023-05-06T01:31:26.329Z,99214.66
2023-05-06T01:34:05.113Z,99226.91
2023-05-06T01:36:57.645Z,99224.66
2023-05-06T01:39:26.516Z,99229.41
2023-05-06T01:41:57.334Z,99240.25
2023-05-06T01:44:27.611Z,99253.44
2023-05-06T01:46:55.190Z,99252.22
2023-05-06T01:49:25.126Z,99258.53
2023-05-06T01:51:53.082Z,99257.84
2023-05-06T01:54:19.721Z,99248.50
2023-05-06T01:56:46.675Z,99242.50
2023-05-06T01:59:14.731Z,99234.56
2023-05-06T02:01:41.367Z,99233.59
2023-05-06T02:04:08.055Z,99235.59
2023-05-06T02:06:34.682Z,99231.25
2023-05-06T02:09:01.409Z,99228.16
2023-05-06T02:11:29.747Z,99227.09
2023-05-06T02:14:02.246Z,99219.34
2023-05-06T02:16:31.490Z,99209.63
2023-05-06T02:18:58.284Z,99206.25
2023-05-06T02:21:24.893Z,99210.41
2023-05-06T02:23:51.506Z,99202.34
2023-05-06T02:26:18.133Z,99198.94
2023-05-06T02:28:44.755Z,99206.16
2023-05-06T02:31:16.233Z,99214.88
2023-05-06T02:33:45.000Z,99197.66
2023-05-06T02:36:11.588Z,99203.22
2023-05-06T02:38:38.141Z,99203.00
2023-05-06T02:41:04.836Z,99203.50
2023-05-06T02:43:31.431Z,99193.91
2023-05-06T02:45:58.406Z,99183.53
2023-05-06T02:48:25.703Z,99184.06
2023-05-06T02:50:52.398Z,99182.22
2023-05-06T02:53:19.041Z,99183.34
2023-05-06T02:55:45.846Z,99171.00
2023-05-06T02:58:12.428Z,99176.44
2023-05-06T03:00:39.005Z,99180.03
2023-05-06T03:03:05.894Z,99174.19
2023-05-06T03:05:32.568Z,99174.69
2023-05-06T03:07:59.187Z,99179.16
2023-05-06T03:10:25.894Z,99178.28
2023-05-06T03:12:52.932Z,99186.72
2023-05-06T03:15:19.592Z,99183.63
2023-05-06T03:17:47.530Z,99175.78
2023-05-06T03:20:14.504Z,99178.59
2023-05-06T03:22:46.427Z,99174.22
2023-05-06T03:25:13.043Z,99187.13
2023-05-06T03:27:41.251Z,99182.53
2023-05-06T03:30:15.375Z,99196.72
2023-05-06T03:32:42.529Z,99189.06
2023-05-06T03:35:12.090Z,99183.81
2023-05-06T03:37:41.773Z,99186.53
2023-05-06T03:40:09.452Z,99190.00
2023-05-06T03:42:36.359Z,99181.66
2023-05-06T03:45:05.060Z,99181.56
2023-05-06T03:47:32.960Z,99191.66
2023-05-06T03:50:00.962Z,99183.03
2023-05-06T03:52:28.322Z,99187.50
2023-05-06T03:54:55.277Z,99186.63
2023-05-06T03:57:22.241Z,99189.44
2023-05-06T03:59:49.149Z,99181.09
2023-05-06T04:02:16.378Z,99185.91
2023-05-06T04:04:43.250Z,99182.97
2023-05-06T04:07:10.094Z,99180.38
2023-05-06T04:09:36.720Z,99179.41
2023-05-06T04:12:07.128Z,99185.59
2023-05-06T04:14:34.905Z,99190.25
2023-05-06T04:17:02.212Z,99190.66
2023-05-06T04:19:28.848Z,99196.56
2023-05-06T04:21:56.621Z,99188.72
2023-05-06T04:24:23.279Z,99192.13
2023-05-06T04:26:50.072Z,99211.63
2023-05-06T04:29:17.227Z,99207.66
2023-05-06T04:31:54.680Z,99205.13
2023-05-06T04:34:22.639Z,99209.00
2023-05-06T04:36:49.515Z,99210.56
2023-05-06T04:39:34.576Z,99207.53
2023-05-06T04:42:02.252Z,99212.41
2023-05-06T04:44:36.480Z,99215.03
2023-05-06T04:47:06.205Z,99221.63
2023-05-06T04:49:32.926Z,99216.09
2023-05-06T04:52:01.015Z,99225.78
2023-05-06T04:54:27.785Z,99226.19
2023-05-06T04:56:54.446Z,99221.63
2023-05-06T04:59:21.127Z,99227.56
2023-05-06T05:01:48.322Z,99234.72
2023-05-06T05:04:15.980Z,99219.78
2023-05-06T05:06:42.832Z,99227.84
2023-05-06T05:09:10.645Z,99227.63
2023-05-06T05:11:39.852Z,99227.63
2023-05-06T05:14:06.553Z,99231.13
2023-05-06T05:16:33.471Z,99229.69
2023-05-06T05:19:03.532Z,99232.88
2023-05-06T05:21:32.844Z,99233.09
2023-05-06T05:24:00.303Z,99227.84
2023-05-06T05:26:27.102Z,99236.69
2023-05-06T05:28:55.632Z,99240.66
2023-05-06T05:31:23.108Z,99239.59
2023-05-06T05:33:50.183Z,99243.38
2023-05-06T05:36:19.975Z,99240.94
2023-05-06T05:38:50.005Z,99246.66
2023-05-06T05:41:17.923Z,99246.09
2023-05-06T05:43:45.574Z,99252.50
2023-05-06T05:46:12.285Z,99250.34
2023-05-06T05:48:40.006Z,99254.63
2023-05-06T05:51:07.357Z,99246.00
2023-05-06T05:53:34.139Z,99251.81
2023-05-06T05:56:00.750Z,99254.28
2023-05-06T05:58:28.562Z,99255.59
2023-05-06T06:00:57.827Z,99250.25
2023-05-06T06:03:25.023Z,99259.78
2023-05-06T06:05:53.143Z,99255.31
2023-05-06T06:08:20.008Z,99258.13
2023-05-06T06:10:48.568Z,99255.81
2023-05-06T06:13:20.474Z,99258.31
2023-05-06T06:15:47.365Z,99266.00
2023-05-06T06:18:14.498Z,99262.41
2023-05-06T06:20:42.188Z,99267.66
2023-05-06T06:23:09.246Z,99269.50
2023-05-06T06:25:36.218Z,99268.53
2023-05-06T06:28:02.905Z,99272.13
2023-05-06T06:30:29.615Z,99279.03
2023-05-06T06:32:56.856Z,99271.84
2023-05-06T06:35:23.810Z,99276.78
2023-05-06T06:37:50.726Z,99277.72
2023-05-06T06:40:17.419Z,99282.50
2023-05-06T06:42:44.078Z,99286.88
2023-05-06T06:45:29.383Z,99287.94
2023-05-06T06:47:56.096Z,99284.72
2023-05-06T06:50:22.708Z,99290.94
2023-05-06T06:52:49.279Z,99293.75
2023-05-06T06:55:15.905Z,99299.75
2023-05-06T06:57:42.523Z,99294.47
2023-05-06T07:00:10.203Z,99293.34
2023-05-06T07:02:36.862Z,99292.50
2023-05-06T07:05:04.501Z,99298.03
2023-05-06T07:07:31.244Z,99305.84
2023-05-06T07:09:58.272Z,99306.63
2023-05-06T07:12:26.708Z,99313.28
2023-05-06T07:14:53.356Z,99313.16
2023-05-06T07:17:20.052Z,99317.22
2023-05-06T07:19:46.783Z,99316.75
2023-05-06T07:22:13.370Z,99313.53
2023-05-06T07:24:39.990Z,99316.63
2023-05-06T07:27:06.604Z,99324.50
2023-05-06T07:29:34.850Z,99317.53
2023-05-06T07:32:01.704Z,99318.22
2023-05-06T07:34:28.346Z,99325.03
2023-05-06T07:36:54.932Z,99320.63
2023-05-06T07:39:21.524Z,99323.06
2023-05-06T07:41:48.132Z,99318.59
2023-05-06T07:44:14.716Z,99321.41
2023-05-06T07:46:41.549Z,99325.69
2023-05-06T07:49:08.223Z,99329.28
2023-05-06T07:51:34.893Z,99332.97
2023-05-06T07:54:01.906Z,99345.25
2023-05-06T07:56:28.636Z,99332.03
2023-05-06T07:58:55.312Z,99340.78
2023-05-06T08:01:22.104Z,99350.03
2023-05-06T08:03:48.732Z,99343.22
2023-05-06T08:06:15.349Z,99344.97
2023-05-06T08:08:41.986Z,99353.91
2023-05-06T08:11:08.598Z,99354.09
2023-05-06T08:13:35.320Z,99355.19
2023-05-06T08:16:02.467Z,99351.44
2023-05-06T08:18:29.972Z,99351.16
2023-05-06T08:20:56.765Z,99355.16
2023-05-06T08:23:23.578Z,99363.09
2023-05-06T08:25:50.220Z,99365.00
2023-05-06T08:28:16.854Z,99363.38
2023-05-06T08:30:44.742Z,99374.56
2023-05-06T08:33:11.416Z,99379.09
2023-05-06T08:35:38.112Z,99382.13
2023-05-06T08:38:04.824Z,99388.59
2023-05-06T08:40:33.582Z,99382.72
2023-05-06T08:43:03.395Z,99394.38
2023-05-06T08:45:30.327Z,99399.09
2023-05-06T08:47:57.318Z,99394.56
2023-05-06T08:50:25.481Z,99396.72
2023-05-06T08:52:52.288Z,99396.28
2023-05-06T08:55:19.714Z,99401.31
2023-05-06T08:57:47.950Z,99400.28
2023-05-06T09:00:15.087Z,99405.34
2023-05-06T09:02:43.313Z,99398.25
2023-05-06T09:05:12.174Z,99404.09
2023-05-06T09:07:39.126Z,99404.78
2023-05-06T09:10:07.829Z,99403.22
2023-05-06T09:12:37.876Z,99408.31
2023-05-06T09:15:05.247Z,99407.13
2023-05-06T09:17:32.661Z,99406.72
2023-05-06T09:20:00.961Z,99416.25
2023-05-06T09:22:29.579Z,99417.63
2023-05-06T09:25:00.046Z,99414.22
2023-05-06T09:27:32.907Z,99417.91
2023-05-06T09:30:07.328Z,99415.50
2023-05-06T09:32:36.813Z,99421.31
2023-05-06T09:35:06.990Z,99422.38
2023-05-06T09:37:33.678Z,99414.38
2023-05-06T09:40:03.465Z,99422.94
2023-05-06T09:42:31.044Z,99422.94
2023-05-06T09:45:02.134Z,99422.06
2023-05-06T09:47:35.170Z,99424.91
2023-05-06T09:50:03.692Z,99425.75
2023-05-06T09:52:31.339Z,99427.38
2023-05-06T09:54:58.544Z,99425.63
2023-05-06T09:57:26.345Z,99427.56
2023-05-06T09:59:54.212Z,99425.72
2023-05-06T10:02:22.972Z,99425.22
2023-05-06T10:04:50.361Z,99435.25
2023-05-06T10:07:22.543Z,99431.00
2023-05-06T10:09:50.763Z,99442.75
2023-05-06T10:12:18.285Z,99440.03
2023-05-06T10:14:45.074Z,99441.41
2023-05-06T10:17:13.204Z,99434.34
2023-05-06T10:19:44.193Z,99436.97
2023-05-06T10:22:46.305Z,99441.41
2023-05-06T10:25:38.892Z,99441.50
2023-05-06T10:28:08.492Z,99437.34
2023-05-06T10:30:40.822Z,99430.91
2023-05-06T10:33:09.755Z,99429.88
2023-05-06T10:35:52.912Z,99440.81
2023-05-06T10:38:26.745Z,99439.13
2023-05-06T10:40:54.801Z,99440.97
2023-05-06T10:43:35.326Z,99445.66
2023-05-06T10:46:03.731Z,99445.84
2023-05-06T10:48:31.393Z,99443.66
2023-05-06T10:51:19.812Z,99449.16
2023-05-06T10:53:57.265Z,99445.84
2023-05-06T10:56:24.619Z,99447.16
2023-05-06T10:58:52.155Z,99443.44
2023-05-06T11:01:22.399Z,99448.66
2023-05-06T11:03:50.868Z,99442.84
2023-05-06T11:06:37.835Z,99444.03
2023-05-06T11:09:06.294Z,99444.28
2023-05-06T11:11:52.251Z,99453.72
2023-05-06T11:14:36.043Z,99449.72
2023-05-06T11:17:05.376Z,99456.00
2023-05-06T11:19:37.633Z,99461.09
2023-05-06T11:22:06.089Z,99455.75
2023-05-06T11:24:38.331Z,99467.69
2023-05-06T11:27:05.800Z,99467.50
2023-05-06T11:29:32.490Z,99469.84
2023-05-06T11:31:59.350Z,99474.03
2023-05-06T11:34:29.884Z,99474.31
2023-05-06T11:36:57.579Z,99475.47
2023-05-06T11:39:30.152Z,99471.34
2023-05-06T11:42:02.859Z,99483.66
2023-05-06T11:44:32.883Z,99473.34
2023-05-06T11:47:02.027Z,99483.28
2023-05-06T11:49:28.919Z,99486.22
2023-05-06T11:51:57.117Z,99487.38
2023-05-06T11:54:26.358Z,99493.75
2023-05-06T11:56:56.190Z,99496.44
2023-05-06T11:59:40.589Z,99504.50
2023-05-06T12:02:10.016Z,99504.06
2023-05-06T12:04:38.729Z,99505.63
2023-05-06T12:07:07.462Z,99508.28
2023-05-06T12:09:35.095Z,99509.69
2023-05-06T12:12:03.620Z,99499.75
2023-05-06T12:14:30.938Z,99505.59
2023-05-06T12:16:58.152Z,99505.34
2023-05-06T12:19:24.962Z,99509.16
2023-05-06T12:21:52.365Z,99513.50
2023-05-06T12:24:28.922Z,99512.94
2023-05-06T12:26:56.152Z,99510.38
2023-05-06T12:29:22.758Z,99516.34
2023-05-06T12:31:49.603Z,99521.34
2023-05-06T12:34:18.414Z,99516.69
2023-05-06T12:36:47.072Z,99514.19
2023-05-06T12:39:14.128Z,99514.50
2023-05-06T12:41:45.046Z,99516.97
2023-05-06T12:44:36.675Z,99522.41
2023-05-06T12:47:24.952Z,99514.66
2023-05-06T12:49:51.718Z,99500.22
2023-05-06T12:52:20.582Z,99506.28
2023-05-06T12:54:47.570Z,99507.78
2023-05-06T12:57:14.556Z,99510.63
2023-05-06T12:59:42.371Z,99505.22
2023-05-06T13:02:09.730Z,99516.13
2023-05-06T13:04:36.330Z,99508.88
2023-05-06T13:07:03.467Z,99509.13
2023-05-06T13:09:30.320Z,99522.41
2023-05-06T13:11:56.883Z,99517.50
2023-05-06T13:14:23.578Z,99523.38
2023-05-06T13:16:50.352Z,99520.16
2023-05-06T13:21:46.739Z,99521.94
2023-05-06T13:24:13.279Z,99517.44
2023-05-06T13:26:40.030Z,99520.31
2023-05-06T13:29:06.821Z,99520.38
2023-05-06T13:31:34.718Z,99526.25
2023-05-06T13:34:01.463Z,99519.81
2023-05-06T13:36:28.150Z,99522.06
2023-05-06T13:38:55.036Z,99530.44
2023-05-06T13:41:22.499Z,99532.69
2023-05-06T13:43:49.036Z,99543.06
2023-05-06T13:46:15.737Z,99545.69
2023-05-06T13:48:42.357Z,99546.91
2023-05-06T13:51:09.040Z,99554.38
2023-05-06T13:53:35.629Z,99547.38
2023-05-06T13:56:02.468Z,99545.09
2023-05-06T13:58:29.148Z,99553.75
2023-05-06T14:00:56.848Z,99551.22
2023-05-06T14:03:23.421Z,99548.25
2023-05-06T14:05:50.465Z,99543.22
2023-05-06T14:08:17.274Z,99533.72
2023-05-06T14:10:44.210Z,99537.19
2023-05-06T14:13:11.608Z,99535.25
2023-05-06T14:15:38.298Z,99535.72
2023-05-06T14:18:05.097Z,99541.97
2023-05-06T14:20:31.869Z,99540.59
2023-05-06T14:22:58.457Z,99544.13
2023-05-06T14:25:27.860Z,99532.66
2023-05-06T14:27:55.061Z,99542.91
2023-05-06T14:30:21.966Z,99532.31
2023-05-06T14:32:48.722Z,99534.84
2023-05-06T14:35:16.257Z,99539.63
2023-05-06T14:37:42.832Z,99547.88
2023-05-06T14:40:10.357Z,99545.16
2023-05-06T14:42:37.205Z,99551.75
2023-05-06T14:45:04.343Z,99553.84
2023-05-06T14:47:31.059Z,99552.53
2023-05-06T14:49:57.790Z,99547.78
2023-05-06T14:52:24.430Z,99552.09
2023-05-06T14:54:51.105Z,99559.00
2023-05-06T14:57:17.737Z,99553.56
2023-05-06T14:59:44.282Z,99555.13
2023-05-06T15:02:11.084Z,99554.72
2023-05-06T15:04:37.826Z,99556.25
2023-05-06T15:07:04.633Z,99558.31
2023-05-06T15:09:31.472Z,99559.25
2023-05-06T15:11:58.238Z,99567.16
2023-05-06T15:14:24.928Z,99555.53
2023-05-06T15:16:55.932Z,99567.75
2023-05-06T15:19:22.735Z,99567.22
2023-05-06T15:21:49.341Z,99574.06
2023-05-06T15:24:16.008Z,99559.63
2023-05-06T15:26:42.831Z,99565.13
2023-05-06T15:29:09.562Z,99559.69
2023-05-06T15:31:39.172Z,99552.38
2023-05-06T15:34:09.400Z,99565.63
2023-05-06T15:36:36.143Z,99565.06
2023-05-06T15:39:03.225Z,99576.03
2023-05-06T15:41:32.294Z,99571.97
2023-05-06T15:44:00.617Z,99560.41
2023-05-06T15:46:28.013Z,99570.19
2023-05-06T15:49:15.629Z,99576.34
2023-05-06T15:51:41.487Z,99580.56
2023-05-06T15:54:08.850Z,99573.59
2023-05-06T15:56:40.669Z,99566.00
2023-05-06T15:59:08.433Z,99570.88
2023-05-06T16:01:57.361Z,99567.75
2023-05-06T16:04:22.410Z,99575.28
2023-05-06T16:06:49.874Z,99567.06
2023-05-06T16:09:16.578Z,99574.66
2023-05-06T16:11:43.214Z,99577.09
2023-05-06T16:14:09.786Z,99580.31
2023-05-06T16:16:36.615Z,99577.00
2023-05-06T16:19:03.359Z,99577.19
2023-05-06T16:21:30.401Z,99570.09
2023-05-06T16:23:57.018Z,99574.75
2023-05-06T16:26:24.520Z,99574.84
2023-05-06T16:28:51.172Z,99570.00
2023-05-06T16:31:18.424Z,99583.22
2023-05-06T16:33:45.219Z,99581.09
2023-05-06T16:36:12.547Z,99576.50
2023-05-06T16:38:39.074Z,99571.94
2023-05-06T16:41:05.756Z,99576.09
2023-05-06T16:43:32.402Z,99567.69
2023-05-06T16:45:58.945Z,99567.94
2023-05-06T16:48:25.764Z,99574.75
2023-05-06T16:50:52.967Z,99578.56
2023-05-06T16:53:19.584Z,99573.91
2023-05-06T16:55:49.907Z,99572.47
2023-05-06T16:58:16.618Z,99574.19
2023-05-06T17:00:43.501Z,99581.78
2023-05-06T17:03:10.381Z,99584.13
2023-05-06T17:05:37.127Z,99579.81
2023-05-06T17:08:03.974Z,99583.22
2023-05-06T17:10:30.670Z,99581.78
2023-05-06T17:12:58.174Z,99588.78
2023-05-06T17:15:25.166Z,99575.78
2023-05-06T17:17:51.958Z,99580.06
2023-05-06T17:20:21.888Z,99577.59
2023-05-06T17:22:49.172Z,99583.91
2023-05-06T17:25:16.150Z,99580.78
2023-05-06T17:27:43.053Z,99587.88
2023-05-06T17:30:09.941Z,99589.66
2023-05-06T17:32:37.415Z,99594.31
2023-05-06T17:35:04.621Z,99590.06
2023-05-06T17:37:31.509Z,99590.72
2023-05-06T17:39:58.192Z,99585.31
2023-05-06T17:42:26.068Z,99597.72
2023-05-06T17:44:53.119Z,99593.97
2023-05-06T17:47:22.734Z,99601.31
2023-05-06T17:49:53.694Z,99606.28
2023-05-06T17:52:20.870Z,99610.94
2023-05-06T17:55:05.699Z,99607.41
2023-05-06T17:57:37.338Z,99612.06
2023-05-06T18:00:04.498Z,99606.22
2023-05-06T18:02:38.504Z,99619.06
2023-05-06T18:05:06.361Z,99616.69
2023-05-06T18:07:33.020Z,99627.84
2023-05-06T18:09:59.730Z,99627.31
2023-05-06T18:12:26.893Z,99630.84
2023-05-06T18:14:55.295Z,99638.16
2023-05-06T18:17:21.948Z,99639.81
2023-05-06T18:19:48.675Z,99640.91
2023-05-06T18:22:15.292Z,99644.84
2023-05-06T18:24:41.887Z,99637.31
2023-05-06T18:27:08.493Z,99641.53
2023-05-06T18:29:35.516Z,99648.84
2023-05-06T18:32:02.255Z,99644.16
2023-05-06T18:34:29.052Z,99649.72
2023-05-06T18:36:55.866Z,99650.72
2023-05-06T18:39:23.613Z,99656.94
2023-05-06T18:41:50.409Z,99654.59
2023-05-06T18:44:17.030Z,99658.53
2023-05-06T18:46:43.568Z,99659.16
2023-05-06T18:49:10.250Z,99661.06
2023-05-06T18:51:37.198Z,99667.63
2023-05-06T18:54:04.349Z,99674.69
2023-05-06T18:56:31.713Z,99671.28
2023-05-06T18:58:58.556Z,99670.78
2023-05-06T19:01:25.306Z,99670.47
2023-05-06T19:03:52.486Z,99668.91
2023-05-06T19:06:19.111Z,99665.75
2023-05-06T19:08:45.837Z,99669.72
2023-05-06T19:11:16.246Z,99668.78
2023-05-06T19:13:43.887Z,99666.41
2023-05-06T19:16:11.249Z,99669.69
2023-05-06T19:18:38.123Z,99671.22
2023-05-06T19:21:04.839Z,99680.38
2023-05-06T19:23:32.813Z,99674.38
2023-05-06T19:25:59.481Z,99683.56
2023-05-06T19:28:26.085Z,99681.53
2023-05-06T19:30:52.851Z,99680.78
2023-05-06T19:33:19.559Z,99685.47
2023-05-06T19:35:46.322Z,99685.41
2023-05-06T19:38:12.900Z,99687.19
2023-05-06T19:40:39.516Z,99686.38
2023-05-06T19:43:06.064Z,99690.56
2023-05-06T19:45:33.817Z,99691.34
2023-05-06T19:48:01.199Z,99702.59
2023-05-06T19:50:28.388Z,99701.41
2023-05-06T19:52:55.019Z,99694.97
2023-05-06T19:55:22.110Z,99696.56
2023-05-06T19:57:50.184Z,99694.50
2023-05-06T20:00:19.949Z,99691.38
2023-05-06T20:02:46.653Z,99688.19
2023-05-06T20:05:13.673Z,99691.88
2023-05-06T20:07:41.203Z,99686.69
2023-05-06T20:10:09.924Z,99691.09
2023-05-06T20:12:36.503Z,99685.88
2023-05-06T20:15:06.951Z,99686.19
2023-05-06T20:17:34.561Z,99683.25
2023-05-06T20:20:04.237Z,99691.06
2023-05-06T20:22:32.332Z,99683.78
2023-05-06T20:25:17.356Z,99676.44
2023-05-06T20:27:45.100Z,99684.31
2023-05-06T20:30:12.325Z,99682.50
2023-05-06T20:32:40.387Z,99674.97
2023-05-06T20:35:07.854Z,99683.59
2023-05-06T20:37:35.365Z,99686.25
2023-05-06T20:40:04.496Z,99687.00
2023-05-06T20:42:31.364Z,99685.16
2023-05-06T20:44:58.050Z,99692.19
2023-05-06T20:47:24.657Z,99684.91
2023-05-06T20:49:51.394Z,99689.84
2023-05-06T20:52:18.300Z,99682.78
2023-05-06T20:54:45.455Z,99693.50
2023-05-06T20:57:14.603Z,99700.56
2023-05-06T20:59:41.730Z,99703.41
2023-05-06T21:02:09.043Z,99702.91
2023-05-06T21:04:35.858Z,99705.03
2023-05-06T21:07:02.935Z,99707.38
2023-05-06T21:09:29.590Z,99702.91
2023-05-06T21:11:56.603Z,99716.50
2023-05-06T21:14:24.788Z,99719.41
2023-05-06T21:16:52.198Z,99715.25
2023-05-06T21:19:19.114Z,99717.88
2023-05-06T21:21:45.771Z,99717.38
2023-05-06T21:24:12.920Z,99716.59
2023-05-06T21:26:40.004Z,99721.78
2023-05-06T21:29:06.607Z,99713.44
2023-05-06T21:31:33.359Z,99714.19
2023-05-06T21:34:00.279Z,99718.59
2023-05-06T21:36:27.129Z,99717.06
2023-05-06T21:39:05.851Z,99727.56
2023-05-06T21:41:35.315Z,99732.25
2023-05-06T21:44:06.197Z,99732.75
2023-05-06T21:46:34.325Z,99726.28
2023-05-06T21:49:01.300Z,99724.19
2023-05-06T21:51:29.934Z,99734.13
2023-05-06T21:53:56.525Z,99733.34
2023-05-06T21:56:23.213Z,99737.53
2023-05-06T21:58:51.094Z,99730.47
2023-05-06T22:01:18.077Z,99733.06
2023-05-06T22:03:45.953Z,99729.91
2023-05-06T22:06:12.779Z,99730.44
2023-05-06T22:08:40.920Z,99726.78
2023-05-06T22:11:07.667Z,99729.41
2023-05-06T22:13:34.380Z,99731.00
2023-05-06T22:16:01.142Z,99732.56
2023-05-06T22:18:29.894Z,99729.44
2023-05-06T22:20:57.822Z,99733.34
2023-05-06T22:23:25.117Z,99730.22
2023-05-06T22:25:52.165Z,99738.84
2023-05-06T22:28:19.764Z,99743.28
2023-05-06T22:30:46.501Z,99734.94
2023-05-06T22:33:13.242Z,99728.13
2023-05-06T22:35:40.007Z,99727.34
2023-05-06T22:38:06.716Z,99721.09
2023-05-06T22:40:33.307Z,99725.78
2023-05-06T22:42:59.941Z,99730.75
2023-05-06T22:45:26.593Z,99731.53
2023-05-06T22:47:53.411Z,99733.59
2023-05-06T22:50:20.090Z,99733.84
2023-05-06T22:52:46.687Z,99738.03
2023-05-06T22:55:13.494Z,99739.06
2023-05-06T22:57:40.314Z,99734.88
2023-05-06T23:00:08.618Z,99735.16
2023-05-06T23:02:35.331Z,99735.94
2023-05-06T23:05:01.983Z,99740.38
2023-05-06T23:07:28.618Z,99739.59
2023-05-06T23:09:55.299Z,99736.44
2023-05-06T23:12:21.838Z,99735.66
2023-05-06T23:14:48.392Z,99743.25
2023-05-06T23:17:15.054Z,99732.81
2023-05-06T23:19:42.450Z,99733.56
2023-05-06T23:22:10.263Z,99730.44
2023-05-06T23:24:36.870Z,99731.22
2023-05-06T23:27:03.484Z,99734.34
2023-05-06T23:29:30.179Z,99732.78
2023-05-06T23:31:56.765Z,99735.13
2023-05-06T23:34:23.484Z,99737.75
2023-05-06T23:36:50.589Z,99737.47
2023-05-06T23:39:17.556Z,99733.81
2023-05-06T23:41:44.297Z,99742.69
2023-05-06T23:44:10.897Z,99745.28
2023-05-06T23:46:37.546Z,99743.47
2023-05-06T23:49:05.335Z,99749.97
2023-05-06T23:51:32.591Z,99749.94
2023-05-06T23:53:59.180Z,99755.97
2023-05-06T23:56:25.756Z,99755.19
2023-05-06T23:58:52.365Z,99755.97
